Time;durP1;ratioP1;P1;durP2;ratioP2;P2;SDS_P1;SDS_P2;PMS_P1;PMS_P2;Temp;Humidity;BMP_temperature;BMP_pressure;BME280_temperature;BME280_humidity;BME280_pressure;Samples;Min_cycle;Max_cycle;Signal;HPM_P1;HPM_P2
2024/03/06 00:00:56;;;;;;;225.93;59.00;;;;;;;;;;4985147;28;20276;-44
2024/03/06 00:03:22;;;;;;;221.80;56.10;;;;;;;;;;4987410;28;20519;-44
2024/03/06 00:05:48;;;;;;;224.47;57.37;;;;;;;;;;4986849;28;20265;-44
2024/03/06 00:08:14;;;;;;;220.27;55.15;;;;;;;;;;4987534;28;20428;-43
2024/03/06 00:10:41;;;;;;;222.03;56.37;;;;;;;;;;4981245;28;20175;-44
2024/03/06 00:13:07;;;;;;;223.48;57.45;;;;;;;;;;4989167;28;20440;-44
2024/03/06 00:15:33;;;;;;;222.45;56.10;;;;;;;;;;4980563;28;20203;-43
2024/03/06 00:17:59;;;;;;;223.63;57.22;;;;;;;;;;4983136;28;20235;-43
2024/03/06 00:20:25;;;;;;;224.50;57.75;;;;;;;;;;4986941;28;20174;-44
2024/03/06 00:22:51;;;;;;;222.35;56.47;;;;;;;;;;4980436;28;20743;-44
2024/03/06 00:25:17;;;;;;;225.07;57.67;;;;;;;;;;4986536;28;20179;-44
2024/03/06 00:27:43;;;;;;;221.98;55.60;;;;;;;;;;4980639;28;20425;-44
2024/03/06 00:30:10;;;;;;;222.35;56.83;;;;;;;;;;4986172;28;20260;-44
2024/03/06 00:32:36;;;;;;;222.55;55.45;;;;;;;;;;4983968;28;20205;-44
2024/03/06 00:35:03;;;;;;;224.67;57.90;;;;;;;;;;4988652;28;20189;-43
2024/03/06 00:37:29;;;;;;;220.20;55.50;;;;;;;;;;4989601;28;21020;-44
2024/03/06 00:39:56;;;;;;;225.57;57.78;;;;;;;;;;4988009;28;20174;-43
2024/03/06 00:42:22;;;;;;;221.68;55.78;;;;;;;;;;4988442;28;20200;-44
2024/03/06 00:44:48;;;;;;;223.00;57.30;;;;;;;;;;4984463;28;20516;-43
2024/03/06 00:47:14;;;;;;;221.47;56.33;;;;;;;;;;4985554;28;20184;-44
2024/03/06 00:49:42;;;;;;;220.47;55.60;;;;;;;;;;4989534;28;20774;-44
2024/03/06 00:52:09;;;;;;;222.73;56.58;;;;;;;;;;4987885;28;20858;-43
2024/03/06 00:54:35;;;;;;;223.68;57.92;;;;;;;;;;4987987;28;20165;-44
2024/03/06 00:57:01;;;;;;;222.65;56.22;;;;;;;;;;4984121;28;20305;-43
2024/03/06 00:59:28;;;;;;;221.60;55.38;;;;;;;;;;4985844;28;20211;-43
2024/03/06 01:01:57;;;;;;;221.57;55.78;;;;;;;;;;4986729;28;20227;-43
2024/03/06 01:04:23;;;;;;;223.75;57.83;;;;;;;;;;4983457;28;20173;-43
2024/03/06 01:06:50;;;;;;;221.90;56.95;;;;;;;;;;4987158;28;20457;-44
2024/03/06 01:09:15;;;;;;;221.82;55.70;;;;;;;;;;4980118;28;20174;-43
2024/03/06 01:11:41;;;;;;;220.67;55.13;;;;;;;;;;4982500;28;20606;-43
2024/03/06 01:14:07;;;;;;;221.43;56.00;;;;;;;;;;4985296;28;20531;-44
2024/03/06 01:16:33;;;;;;;219.20;54.60;;;;;;;;;;4982773;28;20457;-44
2024/03/06 01:18:59;;;;;;;222.37;56.13;;;;;;;;;;4987395;28;20488;-44
2024/03/06 01:21:25;;;;;;;223.83;57.20;;;;;;;;;;4989103;28;20407;-44
2024/03/06 01:23:51;;;;;;;222.23;55.97;;;;;;;;;;4986134;28;20428;-44
2024/03/06 01:26:17;;;;;;;224.13;57.37;;;;;;;;;;4985521;28;20494;-44
2024/03/06 01:28:43;;;;;;;223.43;56.97;;;;;;;;;;4983384;28;20931;-44
2024/03/06 01:31:10;;;;;;;225.27;57.67;;;;;;;;;;4988701;28;20983;-44
2024/03/06 01:33:36;;;;;;;227.68;58.45;;;;;;;;;;4988971;28;20595;-43
2024/03/06 01:36:02;;;;;;;226.17;58.67;;;;;;;;;;4985476;28;20291;-44
2024/03/06 01:38:28;;;;;;;224.38;56.83;;;;;;;;;;4986860;28;20405;-44
2024/03/06 01:40:54;;;;;;;224.27;58.60;;;;;;;;;;4986364;28;20173;-43
2024/03/06 01:43:21;;;;;;;223.47;56.67;;;;;;;;;;4985519;28;20485;-44
2024/03/06 01:45:48;;;;;;;225.85;57.50;;;;;;;;;;4980854;28;20420;-44
2024/03/06 01:48:15;;;;;;;224.48;56.75;;;;;;;;;;4976489;28;20669;-44
2024/03/06 01:50:41;;;;;;;224.85;57.38;;;;;;;;;;4986976;28;20235;-44
2024/03/06 01:53:08;;;;;;;224.18;57.38;;;;;;;;;;4978827;28;20221;-44
2024/03/06 01:55:34;;;;;;;230.45;61.85;;;;;;;;;;4983654;28;20185;-44
2024/03/06 01:58:00;;;;;;;226.30;60.47;;;;;;;;;;4980019;28;20220;-43
2024/03/06 02:00:27;;;;;;;225.13;59.75;;;;;;;;;;4974653;28;20230;-44
2024/03/06 02:02:54;;;;;;;223.10;57.55;;;;;;;;;;4987319;28;20192;-43
2024/03/06 02:05:20;;;;;;;226.35;59.40;;;;;;;;;;4982324;28;20172;-43
2024/03/06 02:07:47;;;;;;;225.48;59.80;;;;;;;;;;4982238;28;20173;-44
2024/03/06 02:10:13;;;;;;;224.85;59.60;;;;;;;;;;4990038;28;20224;-44
2024/03/06 02:12:41;;;;;;;225.15;59.05;;;;;;;;;;4991854;28;20204;-44
2024/03/06 02:15:08;;;;;;;225.43;59.33;;;;;;;;;;4991707;28;20719;-44
2024/03/06 02:17:34;;;;;;;220.68;57.55;;;;;;;;;;4985642;28;20205;-49
2024/03/06 02:20:00;;;;;;;226.13;59.75;;;;;;;;;;4986891;28;20176;-44
2024/03/06 02:22:26;;;;;;;222.63;58.20;;;;;;;;;;4983481;28;20308;-43
2024/03/06 02:24:52;;;;;;;225.63;59.83;;;;;;;;;;4988789;28;20400;-44
2024/03/06 02:27:18;;;;;;;224.57;59.60;;;;;;;;;;4983484;28;20416;-44
2024/03/06 02:29:44;;;;;;;221.27;57.20;;;;;;;;;;4984567;28;20186;-44
2024/03/06 02:32:12;;;;;;;223.20;57.95;;;;;;;;;;4989141;28;20522;-44
2024/03/06 02:34:38;;;;;;;226.05;60.30;;;;;;;;;;4991540;28;20181;-44
2024/03/06 02:37:04;;;;;;;222.07;57.97;;;;;;;;;;4991016;28;20203;-44
2024/03/06 02:39:30;;;;;;;218.93;56.10;;;;;;;;;;4986031;28;20436;-43
2024/03/06 02:41:56;;;;;;;223.40;59.00;;;;;;;;;;4988086;28;20409;-43
2024/03/06 02:44:22;;;;;;;220.57;57.08;;;;;;;;;;4980264;28;20416;-44
2024/03/06 02:46:49;;;;;;;224.90;58.90;;;;;;;;;;4980065;28;20173;-44
2024/03/06 02:49:15;;;;;;;223.02;58.20;;;;;;;;;;4975941;28;20703;-43
2024/03/06 02:51:41;;;;;;;221.93;58.20;;;;;;;;;;4991189;28;20267;-43
2024/03/06 02:54:08;;;;;;;221.93;57.28;;;;;;;;;;4978213;28;20259;-43
2024/03/06 02:56:33;;;;;;;222.25;57.92;;;;;;;;;;4983653;28;20208;-44
2024/03/06 02:59:02;;;;;;;220.73;55.90;;;;;;;;;;4983960;28;20177;-44
2024/03/06 03:01:28;;;;;;;222.95;57.28;;;;;;;;;;4986143;28;20409;-44
2024/03/06 03:03:54;;;;;;;222.80;56.60;;;;;;;;;;4980727;28;20665;-44
2024/03/06 03:06:20;;;;;;;224.33;60.67;;;;;;;;;;4990972;28;20243;-44
2024/03/06 03:08:47;;;;;;;222.55;57.75;;;;;;;;;;4983452;28;20413;-44
2024/03/06 03:11:13;;;;;;;224.13;58.22;;;;;;;;;;4987911;28;20286;-44
2024/03/06 03:13:39;;;;;;;222.60;57.80;;;;;;;;;;4985537;28;20357;-44
2024/03/06 03:16:05;;;;;;;223.37;58.70;;;;;;;;;;4984954;28;20201;-43
2024/03/06 03:18:31;;;;;;;221.10;56.92;;;;;;;;;;4995168;28;20927;-43
2024/03/06 03:20:57;;;;;;;222.07;58.53;;;;;;;;;;4978942;28;20174;-43
2024/03/06 03:23:23;;;;;;;223.60;58.80;;;;;;;;;;4990303;28;20440;-43
2024/03/06 03:25:49;;;;;;;219.27;56.23;;;;;;;;;;4991522;28;20177;-44
2024/03/06 03:28:15;;;;;;;220.55;57.35;;;;;;;;;;4986870;28;20506;-43
2024/03/06 03:30:44;;;;;;;217.32;54.70;;;;;;;;;;4980217;28;20364;-43
2024/03/06 03:33:10;;;;;;;222.38;57.00;;;;;;;;;;4994137;28;20296;-44
2024/03/06 03:35:36;;;;;;;221.95;56.10;;;;;;;;;;4994627;28;20184;-43
2024/03/06 03:38:03;;;;;;;222.15;56.80;;;;;;;;;;4994396;28;20224;-44
2024/03/06 03:40:29;;;;;;;223.73;58.25;;;;;;;;;;4986786;28;20264;-43
2024/03/06 03:42:55;;;;;;;221.07;55.67;;;;;;;;;;4986606;28;20225;-43
2024/03/06 03:45:21;;;;;;;224.40;58.47;;;;;;;;;;4994426;28;20404;-43
2024/03/06 03:47:47;;;;;;;223.13;57.83;;;;;;;;;;4986930;28;20421;-43
2024/03/06 03:50:13;;;;;;;221.30;56.53;;;;;;;;;;4994111;28;20459;-43
2024/03/06 03:52:41;;;;;;;220.93;56.75;;;;;;;;;;4987870;28;20460;-44
2024/03/06 03:55:07;;;;;;;230.10;61.95;;;;;;;;;;4989627;28;20173;-43
2024/03/06 03:57:33;;;;;;;219.18;56.83;;;;;;;;;;4988510;28;20193;-43
2024/03/06 03:59:59;;;;;;;217.73;54.90;;;;;;;;;;4982744;28;20257;-43
2024/03/06 04:02:25;;;;;;;218.37;54.80;;;;;;;;;;4987679;28;20433;-43
2024/03/06 04:04:51;;;;;;;220.43;56.60;;;;;;;;;;4986871;28;20407;-44
2024/03/06 04:07:18;;;;;;;220.67;56.10;;;;;;;;;;4993972;28;20446;-43
2024/03/06 04:09:44;;;;;;;221.45;56.40;;;;;;;;;;4985038;28;20423;-43
2024/03/06 04:12:10;;;;;;;222.13;56.90;;;;;;;;;;4994015;28;20699;-44
2024/03/06 04:14:36;;;;;;;218.13;54.37;;;;;;;;;;4988177;28;20420;-43
2024/03/06 04:17:03;;;;;;;221.23;56.00;;;;;;;;;;4982237;28;20452;-44
2024/03/06 04:19:29;;;;;;;220.07;55.95;;;;;;;;;;4986399;28;20177;-44
2024/03/06 04:21:55;;;;;;;224.32;58.50;;;;;;;;;;4984064;28;20252;-44
2024/03/06 04:24:21;;;;;;;219.67;54.67;;;;;;;;;;4989655;28;20320;-43
2024/03/06 04:26:47;;;;;;;218.60;54.37;;;;;;;;;;4980898;28;20424;-44
2024/03/06 04:29:13;;;;;;;223.93;58.80;;;;;;;;;;4990738;28;20731;-43
2024/03/06 04:31:39;;;;;;;221.23;55.93;;;;;;;;;;4989136;28;20440;-43
2024/03/06 04:34:05;;;;;;;221.57;56.30;;;;;;;;;;4977508;28;20467;-43
2024/03/06 04:36:31;;;;;;;223.23;57.20;;;;;;;;;;4987934;28;20237;-44
2024/03/06 04:38:57;;;;;;;222.57;56.47;;;;;;;;;;4990521;28;20462;-44
2024/03/06 04:41:23;;;;;;;221.15;55.40;;;;;;;;;;4987026;28;20471;-43
2024/03/06 04:43:50;;;;;;;221.35;55.05;;;;;;;;;;4985473;28;20573;-44
2024/03/06 04:46:16;;;;;;;221.57;56.00;;;;;;;;;;4977400;28;20173;-44
2024/03/06 04:48:42;;;;;;;221.83;56.90;;;;;;;;;;4990003;28;20244;-43
2024/03/06 04:51:09;;;;;;;221.60;56.13;;;;;;;;;;4985271;28;20445;-44
2024/03/06 04:53:35;;;;;;;222.77;56.85;;;;;;;;;;4991559;28;20232;-44
2024/03/06 04:56:01;;;;;;;222.98;58.88;;;;;;;;;;4989671;28;20196;-43
2024/03/06 04:58:27;;;;;;;223.32;56.90;;;;;;;;;;4987244;28;20165;-44
2024/03/06 05:00:53;;;;;;;221.00;56.97;;;;;;;;;;4985264;28;20200;-43
2024/03/06 05:03:19;;;;;;;222.43;57.03;;;;;;;;;;4993200;28;20431;-43
2024/03/06 05:05:45;;;;;;;220.97;56.73;;;;;;;;;;4992896;28;20174;-43
2024/03/06 05:08:11;;;;;;;222.53;57.60;;;;;;;;;;4992981;28;20543;-43
2024/03/06 05:10:37;;;;;;;219.77;56.27;;;;;;;;;;4993048;28;20415;-44
2024/03/06 05:13:03;;;;;;;221.98;56.95;;;;;;;;;;4984882;28;21114;-43
2024/03/06 05:15:30;;;;;;;222.23;56.72;;;;;;;;;;4992774;28;20173;-43
2024/03/06 05:17:56;;;;;;;223.27;57.83;;;;;;;;;;4984860;28;20202;-44
2024/03/06 05:20:22;;;;;;;220.83;56.90;;;;;;;;;;4993060;28;20184;-44
2024/03/06 05:22:48;;;;;;;222.67;56.97;;;;;;;;;;4976939;28;20507;-43
2024/03/06 05:25:14;;;;;;;227.80;60.37;;;;;;;;;;4984971;28;20409;-43
2024/03/06 05:27:40;;;;;;;222.53;57.73;;;;;;;;;;4991451;28;20416;-44
2024/03/06 05:30:08;;;;;;;224.43;59.60;;;;;;;;;;4992587;28;20959;-43
2024/03/06 05:32:34;;;;;;;222.52;57.55;;;;;;;;;;4978498;28;20440;-44
2024/03/06 05:35:00;;;;;;;225.47;59.27;;;;;;;;;;4982490;28;20561;-44
2024/03/06 05:37:28;;;;;;;221.77;57.47;;;;;;;;;;4992366;28;20455;-43
2024/03/06 05:39:54;;;;;;;222.77;58.60;;;;;;;;;;4984250;28;20400;-44
2024/03/06 05:42:20;;;;;;;222.30;56.40;;;;;;;;;;4980497;28;20745;-44
2024/03/06 05:44:48;;;;;;;224.38;58.67;;;;;;;;;;4981201;28;20404;-44
2024/03/06 05:47:14;;;;;;;229.20;61.50;;;;;;;;;;4984269;28;20228;-43
2024/03/06 05:49:40;;;;;;;224.47;59.60;;;;;;;;;;4984194;28;20176;-44
2024/03/06 05:52:06;;;;;;;224.23;58.70;;;;;;;;;;4991584;28;20531;-44
2024/03/06 05:54:35;;;;;;;224.20;58.60;;;;;;;;;;4987372;28;20408;-44
2024/03/06 05:57:01;;;;;;;223.70;58.35;;;;;;;;;;4981737;28;20193;-44
2024/03/06 05:59:28;;;;;;;222.32;57.67;;;;;;;;;;4986450;28;20644;-43
2024/03/06 06:01:54;;;;;;;222.10;56.97;;;;;;;;;;4986979;28;20169;-43
2024/03/06 06:04:20;;;;;;;221.73;57.23;;;;;;;;;;4982047;28;20281;-43
2024/03/06 06:06:47;;;;;;;223.18;57.90;;;;;;;;;;4989448;28;20927;-43
2024/03/06 06:09:15;;;;;;;220.00;56.13;;;;;;;;;;4991547;28;20188;-43
2024/03/06 06:11:42;;;;;;;224.02;58.92;;;;;;;;;;4991232;28;20408;-44
2024/03/06 06:14:08;;;;;;;226.57;59.45;;;;;;;;;;4989295;28;20201;-43
2024/03/06 06:16:38;;;;;;;226.05;58.97;;;;;;;;;;4979382;28;20190;-44
2024/03/06 06:19:04;;;;;;;219.73;56.03;;;;;;;;;;4988673;28;20751;-44
2024/03/06 06:21:30;;;;;;;224.50;58.08;;;;;;;;;;4986504;28;20196;-44
2024/03/06 06:23:56;;;;;;;223.60;58.05;;;;;;;;;;4981197;28;20213;-43
2024/03/06 06:26:22;;;;;;;221.43;57.50;;;;;;;;;;4980018;28;20208;-43
2024/03/06 06:28:48;;;;;;;218.05;54.47;;;;;;;;;;4980453;28;20769;-43
2024/03/06 06:31:14;;;;;;;218.67;55.80;;;;;;;;;;4983670;28;20220;-43
2024/03/06 06:33:40;;;;;;;223.17;57.33;;;;;;;;;;4983043;28;21010;-43
2024/03/06 06:36:06;;;;;;;224.17;59.73;;;;;;;;;;4977886;28;20436;-44
2024/03/06 06:38:32;;;;;;;220.27;56.33;;;;;;;;;;4983499;28;20415;-43
2024/03/06 06:40:58;;;;;;;220.47;58.17;;;;;;;;;;4979642;28;20169;-44
2024/03/06 06:43:24;;;;;;;218.27;56.67;;;;;;;;;;4987856;28;20475;-43
2024/03/06 06:45:50;;;;;;;224.13;58.28;;;;;;;;;;4980124;28;20420;-44
2024/03/06 06:48:16;;;;;;;220.75;56.65;;;;;;;;;;4985086;28;20196;-43
2024/03/06 06:50:42;;;;;;;218.50;56.20;;;;;;;;;;4982113;28;20178;-43
2024/03/06 06:53:09;;;;;;;220.93;57.53;;;;;;;;;;4986671;28;20237;-43
2024/03/06 06:55:36;;;;;;;223.43;59.20;;;;;;;;;;4983927;28;20247;-43
2024/03/06 06:58:02;;;;;;;221.60;57.33;;;;;;;;;;4985491;28;20190;-44
2024/03/06 07:00:30;;;;;;;218.05;54.70;;;;;;;;;;4981543;28;20170;-44
2024/03/06 07:02:58;;;;;;;221.32;56.83;;;;;;;;;;4982542;28;20196;-44
2024/03/06 07:05:24;;;;;;;219.73;56.03;;;;;;;;;;4983221;28;20195;-44
2024/03/06 07:07:50;;;;;;;220.70;56.88;;;;;;;;;;4979892;28;20210;-43
2024/03/06 07:10:16;;;;;;;224.03;57.60;;;;;;;;;;4987746;28;20264;-43
2024/03/06 07:12:42;;;;;;;222.70;55.77;;;;;;;;;;4987493;28;20447;-44
2024/03/06 07:15:08;;;;;;;231.93;62.70;;;;;;;;;;4988576;28;20465;-43
2024/03/06 07:17:34;;;;;;;226.27;58.60;;;;;;;;;;4978540;28;20202;-48
2024/03/06 07:20:00;;;;;;;231.60;61.70;;;;;;;;;;4980928;28;20177;-43
2024/03/06 07:22:26;;;;;;;225.80;61.27;;;;;;;;;;4981561;28;20267;-44
2024/03/06 07:24:52;;;;;;;243.13;70.27;;;;;;;;;;4977502;28;20411;-44
2024/03/06 07:27:18;;;;;;;226.97;61.77;;;;;;;;;;4971062;28;20417;-43
2024/03/06 07:29:44;;;;;;;228.87;62.90;;;;;;;;;;4983224;28;20967;-44
2024/03/06 07:32:10;;;;;;;229.95;62.28;;;;;;;;;;4981506;28;20924;-44
2024/03/06 07:34:36;;;;;;;228.77;63.13;;;;;;;;;;4984188;28;20178;-44
2024/03/06 07:37:02;;;;;;;228.07;62.67;;;;;;;;;;4979876;28;20201;-45
2024/03/06 07:39:31;;;;;;;228.85;63.95;;;;;;;;;;4987541;28;20781;-44
2024/03/06 07:41:57;;;;;;;230.65;65.18;;;;;;;;;;4984634;28;20177;-44
2024/03/06 07:44:23;;;;;;;227.60;61.73;;;;;;;;;;4982937;28;20191;-44
2024/03/06 07:46:49;;;;;;;231.32;64.03;;;;;;;;;;4975022;28;20449;-44
2024/03/06 07:49:15;;;;;;;228.73;63.67;;;;;;;;;;4972101;28;20885;-44
2024/03/06 07:51:41;;;;;;;229.83;64.37;;;;;;;;;;4985437;28;20175;-44
2024/03/06 07:54:07;;;;;;;233.23;66.35;;;;;;;;;;4983453;28;20438;-44
2024/03/06 07:56:33;;;;;;;234.33;67.23;;;;;;;;;;4985272;28;20676;-44
2024/03/06 07:59:00;;;;;;;230.97;65.13;;;;;;;;;;4976983;28;20466;-44
2024/03/06 08:01:28;;;;;;;231.43;66.13;;;;;;;;;;4984169;28;20486;-44
2024/03/06 08:03:55;;;;;;;230.88;64.07;;;;;;;;;;4985089;28;20213;-44
2024/03/06 08:06:21;;;;;;;233.68;65.75;;;;;;;;;;4990132;28;20177;-44
2024/03/06 08:08:47;;;;;;;231.23;62.65;;;;;;;;;;4988390;28;20234;-44
2024/03/06 08:11:13;;;;;;;233.27;64.40;;;;;;;;;;4984082;28;20180;-44
2024/03/06 08:13:39;;;;;;;231.35;63.15;;;;;;;;;;4987728;28;20439;-44
2024/03/06 08:16:06;;;;;;;231.75;64.53;;;;;;;;;;4984788;28;20189;-44
2024/03/06 08:18:33;;;;;;;234.10;65.60;;;;;;;;;;4986442;28;20652;-44
2024/03/06 08:20:59;;;;;;;235.45;66.15;;;;;;;;;;4990463;28;20192;-44
2024/03/06 08:23:25;;;;;;;233.00;62.80;;;;;;;;;;4984900;28;20204;-44
2024/03/06 08:25:51;;;;;;;236.37;66.97;;;;;;;;;;4988749;28;20185;-44
2024/03/06 08:28:17;;;;;;;236.93;66.55;;;;;;;;;;4993452;28;20771;-44
2024/03/06 08:30:44;;;;;;;236.27;67.17;;;;;;;;;;4985729;28;20177;-44
2024/03/06 08:33:10;;;;;;;234.13;64.43;;;;;;;;;;4983729;28;20496;-44
2024/03/06 08:35:36;;;;;;;241.07;70.25;;;;;;;;;;4993445;28;20223;-44
2024/03/06 08:38:02;;;;;;;238.23;67.75;;;;;;;;;;4993441;28;20279;-44
2024/03/06 08:40:28;;;;;;;238.68;68.05;;;;;;;;;;4985624;28;20175;-45
2024/03/06 08:42:54;;;;;;;246.35;73.20;;;;;;;;;;4983018;28;20327;-44
2024/03/06 08:45:21;;;;;;;243.60;71.07;;;;;;;;;;4993408;28;20673;-44
2024/03/06 08:47:52;;;;;;;245.25;74.05;;;;;;;;;;4985944;28;20205;-44
2024/03/06 08:50:18;;;;;;;244.70;73.78;;;;;;;;;;4985809;28;20166;-44
2024/03/06 08:52:44;;;;;;;244.67;74.27;;;;;;;;;;4993212;28;20238;-44
2024/03/06 08:55:10;;;;;;;246.80;75.78;;;;;;;;;;4986612;28;20419;-44
2024/03/06 08:57:36;;;;;;;242.85;72.63;;;;;;;;;;4988224;28;20201;-45
2024/03/06 09:00:02;;;;;;;250.18;77.38;;;;;;;;;;4991877;28;20194;-45
2024/03/06 09:02:28;;;;;;;242.43;71.85;;;;;;;;;;4986843;28;20256;-44
2024/03/06 09:04:54;;;;;;;244.47;76.20;;;;;;;;;;4993279;28;20180;-44
2024/03/06 09:07:23;;;;;;;242.63;72.18;;;;;;;;;;4993016;28;20412;-45
2024/03/06 09:09:51;;;;;;;247.40;79.22;;;;;;;;;;4993021;28;20223;-46
2024/03/06 09:12:17;;;;;;;250.13;78.70;;;;;;;;;;4991720;28;20192;-45
2024/03/06 09:14:44;;;;;;;246.48;75.57;;;;;;;;;;4992214;28;20169;-46
2024/03/06 09:17:13;;;;;;;246.93;76.15;;;;;;;;;;4992297;28;20198;-44
2024/03/06 09:19:39;;;;;;;249.80;81.20;;;;;;;;;;4992327;28;20176;-45
2024/03/06 09:22:07;;;;;;;253.05;81.25;;;;;;;;;;4991355;28;20209;-45
2024/03/06 09:24:33;;;;;;;253.33;82.97;;;;;;;;;;4992720;28;20646;-45
2024/03/06 09:26:59;;;;;;;257.30;86.63;;;;;;;;;;4992620;28;20421;-45
2024/03/06 09:29:24;;;;;;;257.57;84.77;;;;;;;;;;4992793;28;20423;-45
2024/03/06 09:31:50;;;;;;;268.40;96.80;;;;;;;;;;4990333;28;20416;-45
2024/03/06 09:34:16;;;;;;;259.53;85.73;;;;;;;;;;4992736;28;20432;-46
2024/03/06 09:36:46;;;;;;;265.47;94.03;;;;;;;;;;4992336;28;20974;-45
2024/03/06 09:39:20;;;;;;;258.60;87.93;;;;;;;;;;4984478;28;20404;-46
2024/03/06 09:41:50;;;;;;;262.60;91.83;;;;;;;;;;4992417;28;20432;-46
2024/03/06 09:44:16;;;;;;;258.07;87.97;;;;;;;;;;4992179;28;20416;-46
2024/03/06 09:46:46;;;;;;;258.37;94.70;;;;;;;;;;4992105;28;20412;-46
2024/03/06 09:49:14;;;;;;;254.17;92.67;;;;;;;;;;4992468;28;20448;-45
2024/03/06 09:51:41;;;;;;;248.50;87.10;;;;;;;;;;4992214;28;20411;-45
2024/03/06 09:54:09;;;;;;;251.67;89.33;;;;;;;;;;4988552;28;20436;-46
2024/03/06 09:56:35;;;;;;;247.53;85.87;;;;;;;;;;4991690;28;20451;-46
2024/03/06 09:59:01;;;;;;;247.20;87.53;;;;;;;;;;4992060;28;20411;-45
2024/03/06 10:01:28;;;;;;;252.37;92.40;;;;;;;;;;4988598;28;20460;-45
2024/03/06 10:03:54;;;;;;;249.17;89.03;;;;;;;;;;4981257;28;20446;-45
2024/03/06 10:06:20;;;;;;;249.00;88.33;;;;;;;;;;4987891;28;20490;-45
2024/03/06 10:08:46;;;;;;;247.43;87.77;;;;;;;;;;4991920;28;20416;-45
2024/03/06 10:11:13;;;;;;;249.57;85.97;;;;;;;;;;4991903;28;20434;-45
2024/03/06 10:13:41;;;;;;;250.43;92.70;;;;;;;;;;4991740;28;20442;-45
2024/03/06 10:16:09;;;;;;;254.73;91.67;;;;;;;;;;4991580;28;20416;-45
2024/03/06 10:18:36;;;;;;;252.27;88.90;;;;;;;;;;4984417;28;20417;-46
2024/03/06 10:21:02;;;;;;;254.57;92.87;;;;;;;;;;4989831;28;20900;-45
2024/03/06 10:23:31;;;;;;;255.50;94.50;;;;;;;;;;4986089;28;20498;-46
2024/03/06 10:25:57;;;;;;;259.20;96.63;;;;;;;;;;4987535;28;20419;-45
2024/03/06 10:28:24;;;;;;;251.70;90.30;;;;;;;;;;4991114;28;20419;-46
2024/03/06 10:30:51;;;;;;;259.37;100.97;;;;;;;;;;4991494;28;20487;-46
2024/03/06 10:33:21;;;;;;;264.27;97.70;;;;;;;;;;4991777;28;20482;-46
2024/03/06 10:35:51;;;;;;;252.70;95.67;;;;;;;;;;4991392;28;20409;-46
2024/03/06 10:38:17;;;;;;;245.03;87.07;;;;;;;;;;4991398;28;20459;-45
2024/03/06 10:40:44;;;;;;;246.47;86.93;;;;;;;;;;4991424;28;20415;-45
2024/03/06 10:43:10;;;;;;;245.37;84.53;;;;;;;;;;4989946;28;20451;-45
2024/03/06 10:45:40;;;;;;;254.10;95.80;;;;;;;;;;4984304;28;20407;-46
2024/03/06 10:48:07;;;;;;;263.90;99.57;;;;;;;;;;4989062;28;20418;-46
2024/03/06 10:50:34;;;;;;;264.90;103.73;;;;;;;;;;4990183;28;20420;-46
2024/03/06 10:53:00;;;;;;;250.97;93.03;;;;;;;;;;4990071;28;20493;-45
2024/03/06 10:55:28;;;;;;;252.17;91.23;;;;;;;;;;4987451;28;20478;-45
2024/03/06 10:57:55;;;;;;;253.70;95.50;;;;;;;;;;4991360;28;20486;-46
2024/03/06 11:00:22;;;;;;;252.57;94.43;;;;;;;;;;4991379;28;20983;-45
2024/03/06 11:02:49;;;;;;;255.90;100.33;;;;;;;;;;4991162;28;20432;-45
2024/03/06 11:05:15;;;;;;;254.27;97.37;;;;;;;;;;4991028;28;20811;-45
2024/03/06 11:07:41;;;;;;;249.57;89.63;;;;;;;;;;4984305;28;20940;-45
2024/03/06 11:10:07;;;;;;;264.20;105.10;;;;;;;;;;4990328;28;20470;-46
2024/03/06 11:12:38;;;;;;;256.10;99.23;;;;;;;;;;4991068;28;21098;-45
2024/03/06 11:15:14;;;;;;;264.17;103.63;;;;;;;;;;4990982;28;20878;-46
2024/03/06 11:17:40;;;;;;;257.43;105.17;;;;;;;;;;4989834;28;21027;-46
2024/03/06 11:20:14;;;;;;;257.33;104.27;;;;;;;;;;4989182;28;20413;-46
2024/03/06 11:22:58;;;;;;;262.03;115.57;;;;;;;;;;4990941;28;20490;-46
2024/03/06 11:25:43;;;;;;;259.80;110.67;;;;;;;;;;4990833;28;20408;-46
2024/03/06 11:28:12;;;;;;;254.63;103.53;;;;;;;;;;4990913;28;20903;-46
2024/03/06 11:30:48;;;;;;;258.90;107.83;;;;;;;;;;4990980;28;20466;-46
2024/03/06 11:33:17;;;;;;;257.93;101.67;;;;;;;;;;4990938;28;20998;-45
2024/03/06 11:36:04;;;;;;;261.17;106.33;;;;;;;;;;4990768;28;20423;-45
2024/03/06 11:38:30;;;;;;;263.43;95.90;;;;;;;;;;4994623;28;20412;-46
2024/03/06 11:40:56;;;;;;;266.87;94.37;;;;;;;;;;4994568;28;20407;-45
2024/03/06 11:43:26;;;;;;;261.10;103.53;;;;;;;;;;4994826;28;20773;-45
2024/03/06 11:45:53;;;;;;;259.40;97.40;;;;;;;;;;4994478;28;20423;-45
2024/03/06 11:48:21;;;;;;;258.53;92.87;;;;;;;;;;4994711;28;20404;-45
2024/03/06 11:50:47;;;;;;;256.50;93.70;;;;;;;;;;4994533;28;20454;-45
2024/03/06 11:53:16;;;;;;;252.57;89.23;;;;;;;;;;4994314;28;20458;-46
2024/03/06 11:55:43;;;;;;;255.73;91.20;;;;;;;;;;4990225;28;20419;-45
2024/03/06 11:58:11;;;;;;;258.33;91.93;;;;;;;;;;4994333;28;20199;-45
2024/03/06 12:00:37;;;;;;;251.63;85.57;;;;;;;;;;4994399;28;20413;-45
2024/03/06 12:03:05;;;;;;;255.80;91.93;;;;;;;;;;4988864;28;20435;-45
2024/03/06 12:05:31;;;;;;;248.27;79.50;;;;;;;;;;4984396;28;20915;-45
2024/03/06 12:07:57;;;;;;;252.37;83.73;;;;;;;;;;4990336;28;20403;-45
2024/03/06 12:10:23;;;;;;;251.90;85.90;;;;;;;;;;4991491;28;20411;-45
2024/03/06 12:12:49;;;;;;;248.57;83.97;;;;;;;;;;4990482;28;20441;-45
2024/03/06 12:15:16;;;;;;;250.27;84.10;;;;;;;;;;4993882;28;20402;-45
2024/03/06 12:17:50;;;;;;;248.23;79.77;;;;;;;;;;4987324;28;20517;-45
2024/03/06 12:20:16;;;;;;;253.40;87.07;;;;;;;;;;4976486;28;20458;-45
2024/03/06 12:22:56;;;;;;;249.60;86.17;;;;;;;;;;4993791;28;20779;-45
2024/03/06 12:25:26;;;;;;;248.73;80.10;;;;;;;;;;4993547;28;20415;-45
2024/03/06 12:27:52;;;;;;;251.03;82.50;;;;;;;;;;4993719;28;20410;-46
2024/03/06 12:30:20;;;;;;;251.77;87.60;;;;;;;;;;4993981;28;20454;-45
2024/03/06 12:32:56;;;;;;;252.73;87.97;;;;;;;;;;4994053;28;20428;-45
2024/03/06 12:35:26;;;;;;;255.03;91.57;;;;;;;;;;4993561;28;20443;-45
2024/03/06 12:37:52;;;;;;;252.87;88.17;;;;;;;;;;4993382;28;20478;-46
2024/03/06 12:40:19;;;;;;;257.43;95.10;;;;;;;;;;4993669;28;20955;-46
2024/03/06 12:42:45;;;;;;;251.63;90.63;;;;;;;;;;4993619;28;20806;-45
2024/03/06 12:45:13;;;;;;;257.00;92.40;;;;;;;;;;4985002;28;20900;-45
2024/03/06 12:47:41;;;;;;;260.03;103.30;;;;;;;;;;4984904;28;20511;-45
2024/03/06 12:50:07;;;;;;;250.03;91.50;;;;;;;;;;4986019;28;20417;-46
2024/03/06 12:52:34;;;;;;;253.13;95.07;;;;;;;;;;4991544;28;20455;-45
2024/03/06 12:55:00;;;;;;;258.37;105.00;;;;;;;;;;4993308;28;20416;-45
2024/03/06 12:57:27;;;;;;;255.83;98.53;;;;;;;;;;4980357;28;20449;-45
2024/03/06 12:59:53;;;;;;;252.47;95.73;;;;;;;;;;4977687;28;20413;-45
2024/03/06 13:02:19;;;;;;;260.07;109.13;;;;;;;;;;4987971;28;20420;-45
2024/03/06 13:04:45;;;;;;;252.70;96.77;;;;;;;;;;4985416;28;20409;-45
2024/03/06 13:07:13;;;;;;;249.47;91.87;;;;;;;;;;4992290;28;20781;-45
2024/03/06 13:09:39;;;;;;;246.87;90.30;;;;;;;;;;4991966;28;20411;-45
2024/03/06 13:12:06;;;;;;;251.17;94.27;;;;;;;;;;4992949;28;20506;-45
2024/03/06 13:14:32;;;;;;;250.10;89.93;;;;;;;;;;4992661;28;20491;-46
2024/03/06 13:16:58;;;;;;;248.50;87.37;;;;;;;;;;4992323;28;21222;-45
2024/03/06 13:19:24;;;;;;;246.10;86.33;;;;;;;;;;4993181;28;20974;-46
2024/03/06 13:21:50;;;;;;;247.33;89.53;;;;;;;;;;4992864;28;21041;-46
2024/03/06 13:24:16;;;;;;;246.90;88.97;;;;;;;;;;4992791;28;20428;-45
2024/03/06 13:26:45;;;;;;;251.90;94.63;;;;;;;;;;4992506;28;20416;-45
2024/03/06 13:29:11;;;;;;;251.67;94.83;;;;;;;;;;4984572;28;20936;-46
2024/03/06 13:31:37;;;;;;;243.00;83.37;;;;;;;;;;4992618;28;20455;-45
2024/03/06 13:34:03;;;;;;;247.87;90.13;;;;;;;;;;4992515;28;20439;-45
2024/03/06 13:36:30;;;;;;;246.93;92.57;;;;;;;;;;4992172;28;20518;-46
2024/03/06 13:38:56;;;;;;;257.70;105.17;;;;;;;;;;4992534;28;20407;-45
2024/03/06 13:41:22;;;;;;;248.30;91.60;;;;;;;;;;4992561;28;20415;-46
2024/03/06 13:43:48;;;;;;;247.73;90.23;;;;;;;;;;4992461;28;20440;-45
2024/03/06 13:46:14;;;;;;;249.07;92.97;;;;;;;;;;4992131;28;20477;-45
2024/03/06 13:48:40;;;;;;;250.57;92.70;;;;;;;;;;4992188;28;20407;-45
2024/03/06 13:51:06;;;;;;;253.07;95.47;;;;;;;;;;4984244;28;20508;-45
2024/03/06 13:53:32;;;;;;;249.50;92.90;;;;;;;;;;4990570;28;21106;-44
2024/03/06 13:55:59;;;;;;;242.57;82.83;;;;;;;;;;4989752;28;20416;-45
2024/03/06 13:58:26;;;;;;;250.80;95.43;;;;;;;;;;4992038;28;20554;-45
2024/03/06 14:00:52;;;;;;;248.17;91.70;;;;;;;;;;4991853;28;20865;-45